createdAt,value
2022-08-05T00:01:56.518Z,19.75
2022-08-05T00:06:03.069Z,27.00
2022-08-05T00:08:35.579Z,21.50
2022-08-05T00:11:48.489Z,27.75
2022-08-05T00:14:57.613Z,22.25
2022-08-05T00:17:59.720Z,21.25
2022-08-05T00:21:06.491Z,25.75
2022-08-05T00:24:15.968Z,24.50
2022-08-05T00:27:21.900Z,26.00
2022-08-05T00:30:32.147Z,24.00
2022-08-05T00:34:56.351Z,25.00
2022-08-05T00:37:10.691Z,25.75
2022-08-05T00:40:14.789Z,23.00
2022-08-05T00:43:20.596Z,24.00
2022-08-05T00:46:42.501Z,24.75
2022-08-05T00:49:51.784Z,26.25
2022-08-05T00:52:55.009Z,24.50
2022-08-05T00:55:57.786Z,22.00
2022-08-05T00:59:00.406Z,23.00
2022-08-05T01:02:02.855Z,23.75
2022-08-05T01:05:10.220Z,24.50
2022-08-05T01:08:39.130Z,20.75
2022-08-05T01:11:37.346Z,25.50
2022-08-05T01:15:35.397Z,23.50
2022-08-05T01:18:42.621Z,22.75
2022-08-05T01:22:15.642Z,19.75
2022-08-05T01:25:40.811Z,27.75
2022-08-05T01:29:04.364Z,23.25
2022-08-05T01:32:12.492Z,23.00
2022-08-05T01:35:51.697Z,22.50
2022-08-05T01:38:50.062Z,21.00
2022-08-05T01:41:54.687Z,25.75
2022-08-05T01:44:59.899Z,24.00
2022-08-05T01:48:10.298Z,29.75
2022-08-05T01:51:14.793Z,21.50
2022-08-05T01:54:19.122Z,22.75
2022-08-05T01:58:12.154Z,23.00
2022-08-05T02:01:00.096Z,20.75
2022-08-05T02:04:03.626Z,21.50
2022-08-05T02:07:06.223Z,24.75
2022-08-05T02:10:10.344Z,24.25
2022-08-05T02:13:36.381Z,24.25
2022-08-05T02:16:52.853Z,23.00
2022-08-05T02:19:59.482Z,26.25
2022-08-05T02:23:08.855Z,26.25
2022-08-05T02:26:13.730Z,23.00
2022-08-05T02:29:25.990Z,25.50
2022-08-05T02:32:48.369Z,27.00
2022-08-05T02:35:56.300Z,26.00
2022-08-05T02:39:03.974Z,30.25
2022-08-05T02:42:11.585Z,29.75
2022-08-05T02:45:52.623Z,25.00
2022-08-05T02:48:52.595Z,26.25
2022-08-05T02:52:03.664Z,28.25
2022-08-05T02:55:07.286Z,22.25
2022-08-05T02:58:15.634Z,22.25
2022-08-05T03:01:20.833Z,22.75
2022-08-05T03:04:23.899Z,24.75
2022-08-05T03:07:59.359Z,23.25
2022-08-05T03:11:01.057Z,24.50
2022-08-05T03:14:13.474Z,25.25
2022-08-05T03:17:15.800Z,24.25
2022-08-05T03:20:18.110Z,23.00
2022-08-05T03:23:24.200Z,28.25
2022-08-05T03:26:31.420Z,23.50
2022-08-05T03:29:45.378Z,25.50
2022-08-05T03:32:57.450Z,28.75
2022-08-05T03:35:59.980Z,24.00
2022-08-05T03:39:12.966Z,24.25
2022-08-05T03:42:22.783Z,23.00
2022-08-05T03:45:29.709Z,26.25
2022-08-05T03:48:51.797Z,27.75
2022-08-05T03:52:37.043Z,30.25
2022-08-05T03:56:06.228Z,27.75
2022-08-05T03:58:51.273Z,26.00
2022-08-05T04:01:59.036Z,29.25
2022-08-05T04:05:02.869Z,27.50
2022-08-05T04:08:30.396Z,25.00
2022-08-05T04:11:47.579Z,25.00
2022-08-05T04:14:53.627Z,29.75
2022-08-05T04:18:03.846Z,25.75
2022-08-05T04:21:11.123Z,32.25
2022-08-05T04:24:18.706Z,28.50
2022-08-05T04:27:42.026Z,27.75
2022-08-05T04:30:44.739Z,27.00
2022-08-05T04:34:19.009Z,29.50
2022-08-05T04:37:09.843Z,29.50
2022-08-05T04:40:12.944Z,25.00
2022-08-05T04:43:22.039Z,28.25
2022-08-05T04:46:28.193Z,24.75
2022-08-05T04:49:39.004Z,25.25
2022-08-05T04:52:53.039Z,26.00
2022-08-05T04:56:32.851Z,27.00
2022-08-05T04:59:22.845Z,32.75
2022-08-05T05:02:41.808Z,21.50
2022-08-05T05:06:36.644Z,29.00
2022-08-05T05:09:07.931Z,27.25
2022-08-05T05:12:09.939Z,26.75
2022-08-05T05:15:13.899Z,29.00
2022-08-05T05:18:28.362Z,28.50
2022-08-05T05:21:33.725Z,24.00
2022-08-05T05:24:57.732Z,25.50
2022-08-05T05:27:59.809Z,27.00
2022-08-05T05:31:01.947Z,25.25
2022-08-05T05:34:08.253Z,27.50
2022-08-05T05:37:12.952Z,25.75
2022-08-05T05:40:17.091Z,27.00
2022-08-05T05:43:54.473Z,25.00
2022-08-05T05:46:45.363Z,27.75
2022-08-05T05:49:52.604Z,29.25
2022-08-05T05:53:03.598Z,18.75
2022-08-05T05:56:31.325Z,29.25
2022-08-05T05:59:40.379Z,31.50
2022-08-05T06:02:42.853Z,26.50
2022-08-05T06:05:45.127Z,26.50
2022-08-05T06:08:56.673Z,26.00
2022-08-05T06:12:02.058Z,24.75
2022-08-05T06:15:07.989Z,22.67
2022-08-05T06:18:10.461Z,23.67
2022-08-05T06:21:18.569Z,24.33
2022-08-05T06:24:22.525Z,23.00
2022-08-05T06:28:12.623Z,19.00
2022-08-05T06:30:51.140Z,21.00
2022-08-05T06:34:06.804Z,24.33
2022-08-05T06:37:13.509Z,20.00
2022-08-05T06:40:18.392Z,17.67
2022-08-05T06:43:58.727Z,22.67
2022-08-05T06:46:46.229Z,21.67
2022-08-05T06:50:01.128Z,22.33
2022-08-05T06:53:19.600Z,21.33
2022-08-05T06:56:29.010Z,16.33
2022-08-05T06:59:38.472Z,20.33
2022-08-05T07:02:44.908Z,20.33
2022-08-05T07:05:47.090Z,18.33
2022-08-05T07:08:53.190Z,20.00
2022-08-05T07:12:00.211Z,21.67
2022-08-05T07:15:34.647Z,22.33
2022-08-05T07:18:47.741Z,20.33
2022-08-05T07:22:00.734Z,18.00
2022-08-05T07:25:21.935Z,17.33
2022-08-05T07:28:27.017Z,17.00
2022-08-05T07:31:53.923Z,18.00
2022-08-05T07:34:57.991Z,18.00
2022-08-05T07:38:00.962Z,22.67
2022-08-05T07:42:07.355Z,19.00
2022-08-05T07:44:38.793Z,16.00
2022-08-05T07:47:42.747Z,16.67
2022-08-05T07:50:45.869Z,14.25
2022-08-05T07:53:55.867Z,14.75
2022-08-05T07:57:14.751Z,16.25
2022-08-05T08:00:21.826Z,17.75
2022-08-05T08:03:26.106Z,17.00
2022-08-05T08:06:47.348Z,18.00
2022-08-05T08:09:54.913Z,14.00
2022-08-05T08:12:58.543Z,14.50
2022-08-05T08:16:35.215Z,13.25
2022-08-05T08:20:22.694Z,14.75
2022-08-05T08:22:55.643Z,15.00
2022-08-05T08:25:59.878Z,16.25
2022-08-05T08:29:29.526Z,14.75
2022-08-05T08:32:28.393Z,14.00
2022-08-05T08:35:35.047Z,16.25
2022-08-05T08:38:43.803Z,15.00
2022-08-05T08:41:59.790Z,13.50
2022-08-05T08:45:23.123Z,13.50
2022-08-05T08:48:42.986Z,15.50
2022-08-05T08:52:05.887Z,13.25
2022-08-05T08:55:19.321Z,12.75
2022-08-05T08:58:43.683Z,13.25
2022-08-05T09:01:57.445Z,16.00
2022-08-05T09:05:17.775Z,15.75
2022-08-05T09:08:20.712Z,16.00
2022-08-05T09:11:51.549Z,17.50
2022-08-05T09:14:59.493Z,13.00
2022-08-05T09:18:10.438Z,15.00
2022-08-05T09:21:20.642Z,12.60
2022-08-05T09:24:38.616Z,14.00
2022-08-05T09:28:04.931Z,15.50
2022-08-05T09:31:22.120Z,15.20
2022-08-05T09:34:51.528Z,15.00
2022-08-05T09:38:12.221Z,15.25
2022-08-05T09:41:17.701Z,16.00
2022-08-05T09:44:56.641Z,15.80
2022-08-05T09:48:00.094Z,15.60
2022-08-05T09:51:14.824Z,18.40
2022-08-05T09:54:31.418Z,14.75
2022-08-05T09:57:43.209Z,14.75
2022-08-05T10:00:54.228Z,13.00
2022-08-05T10:04:04.103Z,14.00
2022-08-05T10:07:20.202Z,14.00
2022-08-05T10:10:48.316Z,14.60
2022-08-05T10:13:57.974Z,13.60
2022-08-05T10:17:39.275Z,13.80
2022-08-05T10:20:51.134Z,16.00
2022-08-05T10:24:00.097Z,12.80
2022-08-05T10:27:03.308Z,16.25
2022-08-05T10:31:20.588Z,14.80
2022-08-05T10:33:37.394Z,15.25
2022-08-05T10:36:42.705Z,14.40
2022-08-05T10:40:03.749Z,15.20
2022-08-05T10:43:46.473Z,14.25
2022-08-05T10:46:56.673Z,12.40
2022-08-05T10:50:31.629Z,15.80
2022-08-05T10:53:56.034Z,13.40
2022-08-05T10:57:01.254Z,12.00
2022-08-05T11:00:20.564Z,13.40
2022-08-05T11:03:27.133Z,14.00
2022-08-05T11:06:31.282Z,14.60
2022-08-05T11:09:48.023Z,13.80
2022-08-05T11:12:55.040Z,14.00
2022-08-05T11:16:33.618Z,14.40
2022-08-05T11:20:16.927Z,15.60
2022-08-05T11:24:04.472Z,12.80
2022-08-05T11:27:50.824Z,15.60
2022-08-05T11:30:58.335Z,16.20
2022-08-05T11:34:03.703Z,15.00
2022-08-05T11:38:28.001Z,13.60
2022-08-05T11:41:34.444Z,14.20
2022-08-05T11:44:52.844Z,11.40
2022-08-05T11:47:54.741Z,11.00
2022-08-05T11:50:58.694Z,12.20
2022-08-05T11:54:03.535Z,13.60
2022-08-05T11:57:08.643Z,10.60
2022-08-05T12:00:28.904Z,13.40
2022-08-05T12:03:56.079Z,10.00
2022-08-05T12:07:01.842Z,12.60
2022-08-05T12:10:09.218Z,11.00
2022-08-05T12:13:15.588Z,13.80
2022-08-05T12:16:20.319Z,13.40
2022-08-05T12:20:25.264Z,13.40
2022-08-05T12:23:11.612Z,15.00
2022-08-05T12:26:20.876Z,11.80
2022-08-05T12:29:27.510Z,15.00
2022-08-05T12:32:50.368Z,11.80
2022-08-05T12:35:53.413Z,13.60
2022-08-05T12:38:58.405Z,14.40
2022-08-05T12:42:01.456Z,12.20
2022-08-05T12:45:09.744Z,12.20
2022-08-05T12:48:17.490Z,14.40
2022-08-05T12:52:10.329Z,14.00
2022-08-05T12:54:56.039Z,13.80
2022-08-05T12:58:49.407Z,14.80
2022-08-05T13:02:03.862Z,14.20
2022-08-05T13:04:52.468Z,14.60
2022-08-05T13:07:59.896Z,18.50
2022-08-05T13:11:04.269Z,14.80
2022-08-05T13:14:36.632Z,13.80
2022-08-05T13:17:41.193Z,16.60
2022-08-05T13:20:44.824Z,15.20
2022-08-05T13:23:50.918Z,15.80
2022-08-05T13:26:54.805Z,13.20
2022-08-05T13:29:59.621Z,13.20
2022-08-05T13:34:22.321Z,13.80
2022-08-05T13:36:46.882Z,17.50
2022-08-05T13:40:15.973Z,17.25
2022-08-05T13:43:21.744Z,16.25
2022-08-05T13:46:44.002Z,16.75
2022-08-05T13:49:48.707Z,15.40
2022-08-05T13:52:51.545Z,18.50
2022-08-05T13:56:00.207Z,17.25
2022-08-05T13:59:06.302Z,18.00
2022-08-05T14:02:26.595Z,14.75
2022-08-05T14:06:04.619Z,16.40
2022-08-05T14:08:54.544Z,17.00
2022-08-05T14:12:03.920Z,15.00
2022-08-05T14:16:08.115Z,18.00
2022-08-05T14:18:41.690Z,15.25
2022-08-05T14:22:09.005Z,13.20
2022-08-05T14:25:21.814Z,17.00
2022-08-05T14:28:27.066Z,15.75
2022-08-05T14:31:54.565Z,14.75
2022-08-05T14:34:53.147Z,15.75
2022-08-05T14:37:57.303Z,19.25
2022-08-05T14:41:07.252Z,17.25
2022-08-05T14:44:20.206Z,16.75
2022-08-05T14:48:03.137Z,18.25
2022-08-05T14:50:45.781Z,14.00
2022-08-05T14:54:06.912Z,15.75
2022-08-05T14:57:14.060Z,15.00
2022-08-05T15:00:16.611Z,15.00
2022-08-05T15:03:22.965Z,16.00
2022-08-05T15:06:28.009Z,20.00
2022-08-05T15:09:51.531Z,17.25
2022-08-05T15:13:00.992Z,14.75
2022-08-05T15:16:06.402Z,14.25
2022-08-05T15:19:23.176Z,15.00
2022-08-05T15:22:28.124Z,14.25
2022-08-05T15:25:50.888Z,13.25
2022-08-05T15:28:53.289Z,18.00
2022-08-05T15:31:56.765Z,17.25
2022-08-05T15:35:04.062Z,17.00
2022-08-05T15:38:34.622Z,15.50
2022-08-05T15:41:57.241Z,18.50
2022-08-05T15:44:59.086Z,15.00
2022-08-05T15:48:05.022Z,11.50
2022-08-05T15:51:09.366Z,11.75
2022-08-05T15:54:14.956Z,14.50
2022-08-05T15:57:17.871Z,14.00
2022-08-05T16:00:26.137Z,14.25
2022-08-05T16:03:48.565Z,16.00
2022-08-05T16:06:56.011Z,16.75
2022-08-05T16:09:58.501Z,17.00
2022-08-05T16:13:01.055Z,14.00
2022-08-05T16:16:04.499Z,15.00
2022-08-05T16:19:07.597Z,16.50
2022-08-05T16:22:15.364Z,12.25
2022-08-05T16:25:18.862Z,16.75
2022-08-05T16:28:21.080Z,14.00
2022-08-05T16:31:26.806Z,15.25
2022-08-05T16:34:50.914Z,15.75
2022-08-05T16:38:02.516Z,14.50
2022-08-05T16:42:15.413Z,18.00
2022-08-05T16:44:39.097Z,15.50
2022-08-05T16:47:53.523Z,18.00
2022-08-05T16:50:59.946Z,16.75
2022-08-05T16:54:15.920Z,12.00
2022-08-05T16:57:30.146Z,16.50
2022-08-05T17:00:46.855Z,15.25
2022-08-05T17:03:52.117Z,15.75
2022-08-05T17:06:55.830Z,18.50
2022-08-05T17:10:03.574Z,17.25
2022-08-05T17:13:05.886Z,17.00
2022-08-05T17:16:32.535Z,16.00
2022-08-05T17:19:36.065Z,16.50
2022-08-05T17:22:38.797Z,14.25
2022-08-05T17:25:41.786Z,16.25
2022-08-05T17:28:44.856Z,13.75
2022-08-05T17:31:56.836Z,14.75
2022-08-05T17:35:00.607Z,15.75
2022-08-05T17:38:07.685Z,13.50
2022-08-05T17:41:22.931Z,16.00
2022-08-05T17:44:32.902Z,15.00
2022-08-05T17:47:35.402Z,15.75
2022-08-05T17:50:38.721Z,18.25
2022-08-05T17:53:42.388Z,21.00
2022-08-05T17:56:44.877Z,17.00
2022-08-05T18:00:05.623Z,16.00
2022-08-05T18:03:08.382Z,16.67
2022-08-05T18:06:15.140Z,15.00
2022-08-05T18:09:17.808Z,16.00
2022-08-05T18:12:22.145Z,14.67
2022-08-05T18:15:27.736Z,17.00
2022-08-05T18:18:34.021Z,15.33
2022-08-05T18:22:08.891Z,16.33
2022-08-05T18:25:05.783Z,18.00
2022-08-05T18:28:09.297Z,15.00
2022-08-05T18:31:12.082Z,16.67
2022-08-05T18:34:18.007Z,16.00
2022-08-05T18:37:34.309Z,19.33
2022-08-05T18:42:00.312Z,17.67
2022-08-05T18:44:06.296Z,19.00
2022-08-05T18:47:10.440Z,18.67
2022-08-05T18:50:44.934Z,18.67
2022-08-05T18:53:50.365Z,20.67
2022-08-05T18:56:53.106Z,26.67
2022-08-05T19:00:02.954Z,19.67
2022-08-05T19:03:08.120Z,20.00
2022-08-05T19:06:18.963Z,20.33
2022-08-05T19:09:24.706Z,22.00
2022-08-05T19:12:29.534Z,24.00
2022-08-05T19:15:59.270Z,18.33
2022-08-05T19:18:56.433Z,21.00
2022-08-05T19:21:59.532Z,21.67
2022-08-05T19:25:03.026Z,23.67
2022-08-05T19:28:05.544Z,23.67
2022-08-05T19:31:08.025Z,21.33
2022-08-05T19:34:10.372Z,18.67
2022-08-05T19:37:12.647Z,20.33
2022-08-05T19:40:15.598Z,21.33
2022-08-05T19:43:31.217Z,19.33
2022-08-05T19:50:25.956Z,22.00
2022-08-05T19:54:03.600Z,21.00
2022-08-05T19:56:55.275Z,20.67
2022-08-05T20:00:02.484Z,21.00
2022-08-05T20:03:13.749Z,23.00
2022-08-05T20:06:28.542Z,25.67
2022-08-05T20:09:54.645Z,24.33
2022-08-05T20:12:55.211Z,22.67
2022-08-05T20:15:58.399Z,25.67
2022-08-05T20:19:03.410Z,22.33
2022-08-05T20:22:05.952Z,22.67
2022-08-05T20:25:12.176Z,24.00
2022-08-05T20:28:14.780Z,25.67
2022-08-05T20:31:21.711Z,26.00
2022-08-05T20:34:30.877Z,27.33
2022-08-05T20:38:05.659Z,23.67
2022-08-05T20:40:56.426Z,26.00
2022-08-05T20:44:06.074Z,26.00
2022-08-05T20:47:21.247Z,27.00
2022-08-05T20:50:40.867Z,30.33
2022-08-05T20:53:56.343Z,26.67
2022-08-05T20:56:59.763Z,23.33
2022-08-05T21:00:19.846Z,26.33
2022-08-05T21:03:34.151Z,26.33
2022-08-05T21:06:37.679Z,23.67
2022-08-05T21:09:53.257Z,28.00
2022-08-05T21:13:08.742Z,23.33
2022-08-05T21:16:13.677Z,28.33
2022-08-05T21:19:17.384Z,28.00
2022-08-05T21:22:23.838Z,28.00
2022-08-05T21:25:26.184Z,27.67
2022-08-05T21:28:36.606Z,29.50
2022-08-05T21:31:41.166Z,27.33
2022-08-05T21:34:44.729Z,30.67
2022-08-05T21:38:06.978Z,28.00
2022-08-05T21:41:12.031Z,29.00
2022-08-05T21:44:14.229Z,26.50
2022-08-05T21:47:55.714Z,28.50
2022-08-05T21:50:41.071Z,30.25
2022-08-05T21:53:43.540Z,32.75
2022-08-05T22:00:24.676Z,30.75
2022-08-05T22:03:51.922Z,31.00
2022-08-05T22:06:50.511Z,35.00
2022-08-05T22:09:52.750Z,31.25
2022-08-05T22:13:09.173Z,30.00
2022-08-05T22:16:42.165Z,31.00
2022-08-05T22:20:02.226Z,32.50
2022-08-05T22:24:02.701Z,32.25
2022-08-05T22:27:07.069Z,28.00
2022-08-05T22:30:14.727Z,33.00
2022-08-05T22:33:19.792Z,31.00
2022-08-05T22:36:41.918Z,32.00
2022-08-05T22:39:45.533Z,31.00
2022-08-05T22:42:53.104Z,28.75
2022-08-05T22:46:02.520Z,30.25
2022-08-05T22:49:23.089Z,30.25
2022-08-05T22:52:34.487Z,21.50
2022-08-05T22:55:57.360Z,32.50
2022-08-05T22:59:03.926Z,34.00
2022-08-05T23:02:07.898Z,29.00
2022-08-05T23:05:10.381Z,30.75
2022-08-05T23:08:12.765Z,27.00
2022-08-05T23:11:16.627Z,27.25
2022-08-05T23:14:22.554Z,25.75
2022-08-05T23:17:35.019Z,32.25
2022-08-05T23:20:40.262Z,31.25
2022-08-05T23:23:45.500Z,32.00
2022-08-05T23:26:47.634Z,29.50
2022-08-05T23:29:50.669Z,28.75
2022-08-05T23:32:52.927Z,29.25
2022-08-05T23:35:56.437Z,30.25
2022-08-05T23:38:58.859Z,31.25
2022-08-05T23:42:01.419Z,27.00
2022-08-05T23:45:05.425Z,29.25
2022-08-05T23:48:16.864Z,27.25
2022-08-05T23:51:21.819Z,29.25
2022-08-05T23:54:30.397Z,31.00
2022-08-05T23:57:36.803Z,33.75
